Time;durP1;ratioP1;P1;durP2;ratioP2;P2;SDS_P1;SDS_P2;PMS_P1;PMS_P2;Temp;Humidity;BMP_temperature;BMP_pressure;BME280_temperature;BME280_humidity;BME280_pressure;Samples;Min_cycle;Max_cycle;Signal;HPM_P1;HPM_P2
2022/03/29 00:01:51;;;;;;;66.50;38.75;;;7.40;99.90;;;;;;5019849;28;20050;-76
2022/03/29 00:04:19;;;;;;;75.43;41.22;;;7.40;99.90;;;;;;5014489;28;20100;-75
2022/03/29 00:06:47;;;;;;;72.60;40.35;;;7.40;99.90;;;;;;5018018;28;20069;-75
2022/03/29 00:09:16;;;;;;;76.75;41.53;;;7.40;99.90;;;;;;5034772;28;20128;-76
2022/03/29 00:11:44;;;;;;;84.47;45.92;;;7.30;99.90;;;;;;5036468;28;20068;-75
2022/03/29 00:14:12;;;;;;;72.22;41.80;;;7.30;99.90;;;;;;5036145;28;20061;-76
2022/03/29 00:16:40;;;;;;;72.68;42.45;;;7.20;99.90;;;;;;5036754;28;20053;-74
2022/03/29 00:19:07;;;;;;;77.05;45.13;;;7.20;99.90;;;;;;5034569;28;20037;-76
2022/03/29 00:21:35;;;;;;;81.03;43.50;;;7.10;99.90;;;;;;5034958;28;20124;-76
2022/03/29 00:24:03;;;;;;;75.07;42.42;;;7.10;99.90;;;;;;5031741;28;20064;-75
2022/03/29 00:26:32;;;;;;;74.18;42.90;;;7.00;99.90;;;;;;5035214;28;20048;-76
2022/03/29 00:29:00;;;;;;;80.85;44.45;;;7.00;99.90;;;;;;5035087;28;20045;-76
2022/03/29 00:31:27;;;;;;;78.93;47.90;;;6.90;99.90;;;;;;5035385;28;20038;-76
2022/03/29 00:33:55;;;;;;;76.07;44.40;;;6.90;99.90;;;;;;5035361;28;20055;-76
2022/03/29 00:36:22;;;;;;;72.22;42.75;;;6.90;99.90;;;;;;5034433;28;20460;-76
2022/03/29 00:38:50;;;;;;;70.70;40.58;;;6.80;99.90;;;;;;5035664;28;20404;-76
2022/03/29 00:41:17;;;;;;;75.80;40.97;;;6.80;99.90;;;;;;5033705;28;20144;-76
2022/03/29 00:43:46;;;;;;;72.63;38.75;;;6.80;99.90;;;;;;5033218;28;20080;-76
2022/03/29 00:46:14;;;;;;;66.20;39.10;;;6.70;99.90;;;;;;5034759;28;20180;-76
2022/03/29 00:48:41;;;;;;;64.97;37.60;;;6.70;99.90;;;;;;5034253;28;20057;-75
2022/03/29 00:51:10;;;;;;;64.85;37.58;;;6.70;99.90;;;;;;5033440;28;20068;-75
2022/03/29 00:53:38;;;;;;;62.80;36.95;;;6.60;99.90;;;;;;5034953;28;20041;-74
2022/03/29 00:56:05;;;;;;;55.05;33.80;;;6.60;1.00;;;;;;5034238;28;20049;-74
2022/03/29 00:58:34;;;;;;;52.10;33.33;;;6.60;1.00;;;;;;5035414;28;20057;-74
2022/03/29 01:01:04;;;;;;;52.30;32.42;;;6.50;1.00;;;;;;5033592;28;20065;-76
2022/03/29 01:03:31;;;;;;;54.25;31.63;;;6.50;1.00;;;;;;5034517;28;20068;-75
2022/03/29 01:05:59;;;;;;;55.38;33.40;;;6.60;1.00;;;;;;5032870;28;20049;-76
2022/03/29 01:08:27;;;;;;;60.03;34.20;;;6.60;1.00;;;;;;5034424;28;20045;-75
2022/03/29 01:10:55;;;;;;;56.55;33.50;;;6.60;1.00;;;;;;5032772;28;20050;-76
2022/03/29 01:13:23;;;;;;;51.10;32.03;;;6.60;1.00;;;;;;5034160;28;20044;-75
2022/03/29 01:15:52;;;;;;;55.97;33.20;;;6.60;1.00;;;;;;5032984;28;20072;-75
2022/03/29 01:18:20;;;;;;;64.78;36.38;;;6.50;1.00;;;;;;5034139;28;20044;-75
2022/03/29 01:20:50;;;;;;;59.05;33.70;;;6.50;1.00;;;;;;5033284;28;20053;-75
2022/03/29 01:23:20;;;;;;;57.88;33.60;;;6.40;1.00;;;;;;5036718;28;20041;-74
2022/03/29 01:25:50;;;;;;;51.55;31.23;;;6.30;1.00;;;;;;5039852;28;20129;-76
2022/03/29 01:28:22;;;;;;;51.25;31.92;;;6.20;1.00;;;;;;5034472;28;20047;-75
2022/03/29 01:30:52;;;;;;;53.35;32.10;;;6.20;1.00;;;;;;5034293;28;20049;-74
2022/03/29 01:33:20;;;;;;;52.35;31.38;;;6.10;1.00;;;;;;5032609;28;20045;-74
2022/03/29 01:35:48;;;;;;;53.53;30.88;;;6.10;1.00;;;;;;5032529;28;20049;-74
2022/03/29 01:38:16;;;;;;;47.88;29.13;;;6.10;1.00;;;;;;5032149;28;20069;-76
2022/03/29 01:40:45;;;;;;;52.53;29.23;;;6.00;1.00;;;;;;5032440;28;20069;-75
2022/03/29 01:43:13;;;;;;;55.35;30.67;;;5.90;1.00;;;;;;5034616;28;20049;-75
2022/03/29 01:45:41;;;;;;;51.08;30.35;;;5.90;1.00;;;;;;5034962;28;20046;-76
2022/03/29 01:48:09;;;;;;;50.15;28.98;;;5.90;1.00;;;;;;5033131;28;20069;-76
2022/03/29 01:50:36;;;;;;;48.58;29.52;;;5.90;1.00;;;;;;5031930;28;20416;-75
2022/03/29 01:53:04;;;;;;;48.10;29.27;;;6.00;1.00;;;;;;5016234;28;20060;-75
2022/03/29 01:55:31;;;;;;;48.03;29.05;;;6.10;1.00;;;;;;5013075;28;20140;-74
2022/03/29 01:58:00;;;;;;;47.92;26.92;;;6.00;1.00;;;;;;5014889;28;20412;-75
2022/03/29 02:00:34;;;;;;;44.65;26.77;;;6.00;1.00;;;;;;5018067;28;20061;-75
2022/03/29 02:03:04;;;;;;;44.63;28.75;;;6.00;1.00;;;;;;5021551;28;20046;-76
2022/03/29 02:05:32;;;;;;;49.72;28.33;;;6.00;1.00;;;;;;5034169;28;20124;-75
2022/03/29 02:08:00;;;;;;;47.75;30.05;;;5.90;1.00;;;;;;5033469;28;20111;-76
2022/03/29 02:10:28;;;;;;;47.92;28.90;;;5.80;1.00;;;;;;5012622;28;20046;-76
2022/03/29 02:12:55;;;;;;;48.65;28.60;;;5.80;1.00;;;;;;5013015;28;20120;-75
2022/03/29 02:15:24;;;;;;;55.38;29.73;;;5.90;1.00;;;;;;5013765;28;20568;-76
2022/03/29 02:17:52;;;;;;;46.33;29.50;;;5.80;1.00;;;;;;5027694;28;20072;-76
2022/03/29 02:20:22;;;;;;;51.70;30.08;;;5.80;1.00;;;;;;5040508;28;20532;-75
2022/03/29 02:22:49;;;;;;;46.75;29.95;;;5.80;1.00;;;;;;5038379;28;20530;-76
2022/03/29 02:25:17;;;;;;;43.67;29.38;;;5.80;1.00;;;;;;5038713;28;20052;-75
2022/03/29 02:27:46;;;;;;;51.42;30.85;;;5.80;1.00;;;;;;5039856;28;20041;-77
2022/03/29 02:30:15;;;;;;;51.42;31.08;;;5.70;1.00;;;;;;5038444;28;20065;-75
2022/03/29 02:32:45;;;;;;;53.58;31.77;;;5.60;1.00;;;;;;5038680;28;20053;-75
2022/03/29 02:35:13;;;;;;;57.60;33.10;;;5.50;1.00;;;;;;5039913;28;20049;-74
2022/03/29 02:37:41;;;;;;;45.92;29.40;;;5.40;1.00;;;;;;5039766;28;20037;-74
2022/03/29 02:40:10;;;;;;;52.03;30.75;;;5.30;1.00;;;;;;5022964;28;20119;-75
2022/03/29 02:42:42;;;;;;;57.30;32.33;;;5.40;1.00;;;;;;5019707;28;20092;-75
2022/03/29 02:45:13;;;;;;;56.28;32.83;;;5.50;1.00;;;;;;5025111;28;20409;-75
2022/03/29 02:47:40;;;;;;;57.00;33.25;;;5.50;1.00;;;;;;5040168;28;20566;-74
2022/03/29 02:50:10;;;;;;;57.78;33.85;;;5.40;1.00;;;;;;5039332;28;20060;-76
2022/03/29 02:52:47;;;;;;;58.95;35.42;;;5.40;1.00;;;;;;5040462;28;20088;-75
2022/03/29 02:55:15;;;;;;;57.92;34.92;;;5.40;1.00;;;;;;5040673;28;20519;-75
2022/03/29 02:57:43;;;;;;;51.45;31.33;;;5.40;1.00;;;;;;5040252;28;20504;-76
2022/03/29 03:00:15;;;;;;;52.45;31.35;;;5.40;1.00;;;;;;5040461;28;20045;-75
2022/03/29 03:02:43;;;;;;;49.03;31.27;;;5.30;1.00;;;;;;5038837;28;20049;-76
2022/03/29 03:05:12;;;;;;;51.17;30.63;;;5.30;1.00;;;;;;5038540;28;20046;-76
2022/03/29 03:07:40;;;;;;;53.83;32.72;;;5.30;1.00;;;;;;5040055;28;20041;-75
2022/03/29 03:10:09;;;;;;;55.25;33.40;;;5.30;1.00;;;;;;5039746;28;20133;-74
2022/03/29 03:12:37;;;;;;;56.15;34.65;;;5.30;1.00;;;;;;5037773;28;20401;-76
2022/03/29 03:15:06;;;;;;;58.85;35.63;;;5.30;1.00;;;;;;5039661;28;20053;-76
2022/03/29 03:17:34;;;;;;;59.55;34.50;;;5.10;1.00;;;;;;5039546;28;20087;-74
2022/03/29 03:20:02;;;;;;;58.10;34.92;;;5.10;1.00;;;;;;5039362;28;20045;-76
2022/03/29 03:22:31;;;;;;;59.28;35.55;;;5.00;1.00;;;;;;5037713;28;20497;-74
2022/03/29 03:24:59;;;;;;;61.83;34.85;;;5.00;1.00;;;;;;5038596;28;20159;-75
2022/03/29 03:27:27;;;;;;;61.90;36.33;;;5.00;1.00;;;;;;5037030;28;20046;-75
2022/03/29 03:29:54;;;;;;;66.20;37.13;;;5.00;1.00;;;;;;5035226;28;20103;-74
2022/03/29 03:32:22;;;;;;;58.08;36.00;;;5.00;1.00;;;;;;5034075;28;20137;-75
2022/03/29 03:34:49;;;;;;;66.97;41.38;;;5.00;1.00;;;;;;5036571;28;20041;-75
2022/03/29 03:37:17;;;;;;;83.72;48.85;;;4.90;1.00;;;;;;5034800;28;20492;-75
2022/03/29 03:39:46;;;;;;;88.65;51.75;;;4.80;1.00;;;;;;5036265;28;20041;-75
2022/03/29 03:42:13;;;;;;;91.55;51.35;;;4.80;1.00;;;;;;5035530;28;20050;-75
2022/03/29 03:44:41;;;;;;;77.68;46.25;;;4.90;1.00;;;;;;5035677;28;20468;-76
2022/03/29 03:47:10;;;;;;;84.82;50.55;;;4.80;1.00;;;;;;5034634;28;20055;-75
2022/03/29 03:49:38;;;;;;;69.43;41.45;;;4.80;1.00;;;;;;5035025;28;20050;-75
2022/03/29 03:52:07;;;;;;;62.90;36.90;;;4.80;1.00;;;;;;5036476;28;20041;-74
2022/03/29 03:54:35;;;;;;;58.28;38.10;;;4.80;1.00;;;;;;5035063;28;20072;-75
2022/03/29 03:57:05;;;;;;;56.30;37.85;;;4.80;1.00;;;;;;5035921;28;20100;-75
2022/03/29 03:59:33;;;;;;;67.10;41.17;;;4.80;1.00;;;;;;5034771;28;20080;-75
2022/03/29 04:02:01;;;;;;;59.47;38.10;;;4.80;1.00;;;;;;5035093;28;20068;-74
2022/03/29 04:04:29;;;;;;;60.53;37.33;;;4.80;1.00;;;;;;5035851;28;20047;-75
2022/03/29 04:06:56;;;;;;;61.60;37.30;;;4.80;1.00;;;;;;5035952;28;20037;-75
2022/03/29 04:09:24;;;;;;;64.40;38.33;;;4.70;1.00;;;;;;5036710;28;20451;-75
2022/03/29 04:11:52;;;;;;;63.05;37.80;;;4.70;1.00;;;;;;5037351;28;20041;-74
2022/03/29 04:14:21;;;;;;;62.42;36.55;;;4.60;1.00;;;;;;5034889;28;20045;-75
2022/03/29 04:16:48;;;;;;;59.35;34.63;;;4.60;1.00;;;;;;5034020;28;20041;-75
2022/03/29 04:19:16;;;;;;;59.95;34.65;;;4.50;1.00;;;;;;5034088;28;20113;-75
2022/03/29 04:21:44;;;;;;;63.47;35.60;;;4.50;1.00;;;;;;5035372;28;20045;-76
2022/03/29 04:24:11;;;;;;;59.22;35.28;;;4.60;1.00;;;;;;5033356;28;20049;-75
2022/03/29 04:26:39;;;;;;;56.25;35.90;;;4.50;1.00;;;;;;5034984;28;20048;-76
2022/03/29 04:29:07;;;;;;;58.60;35.13;;;4.40;1.00;;;;;;5033557;28;20049;-75
2022/03/29 04:31:36;;;;;;;62.15;36.50;;;4.50;11.80;;;;;;5033653;28;20045;-75
2022/03/29 04:34:05;;;;;;;56.65;35.50;;;4.50;99.90;;;;;;5034363;28;20163;-75
2022/03/29 04:36:33;;;;;;;61.25;36.42;;;4.50;91.90;;;;;;5033389;28;20451;-75
2022/03/29 04:39:00;;;;;;;58.15;34.78;;;4.40;99.90;;;;;;5026676;28;20046;-74
2022/03/29 04:41:28;;;;;;;65.25;37.28;;;4.50;99.90;;;;;;5020354;28;20075;-74
2022/03/29 04:43:56;;;;;;;71.43;39.58;;;4.50;26.50;;;;;;5033583;28;20072;-75
2022/03/29 04:46:23;;;;;;;75.18;40.97;;;4.50;54.50;;;;;;5033983;28;20041;-74
2022/03/29 04:48:52;;;;;;;69.53;40.78;;;4.40;96.90;;;;;;5033568;28;20496;-75
2022/03/29 04:51:20;;;;;;;71.07;41.80;;;4.30;60.10;;;;;;5034841;28;20448;-75
2022/03/29 04:53:48;;;;;;;73.35;40.80;;;4.30;99.90;;;;;;5032984;28;20049;-74
2022/03/29 04:56:15;;;;;;;75.57;42.90;;;4.40;99.90;;;;;;5033939;28;20053;-75
2022/03/29 04:58:43;;;;;;;78.57;43.00;;;4.40;91.70;;;;;;5036785;28;20073;-75
2022/03/29 05:01:10;;;;;;;79.13;45.33;;;4.40;93.50;;;;;;5036115;28;20432;-75
2022/03/29 05:03:38;;;;;;;86.40;49.30;;;4.40;50.30;;;;;;5036321;28;20038;-75
2022/03/29 05:06:07;;;;;;;89.97;49.63;;;4.40;1.00;;;;;;5043114;28;20100;-75
2022/03/29 05:08:34;;;;;;;91.53;49.80;;;4.50;1.00;;;;;;5041535;28;20117;-75
2022/03/29 05:11:02;;;;;;;91.00;50.17;;;4.50;1.00;;;;;;5037192;28;20519;-74
2022/03/29 05:13:29;;;;;;;93.35;49.92;;;4.60;1.00;;;;;;5021039;28;20040;-75
2022/03/29 05:15:57;;;;;;;102.28;54.22;;;4.70;1.00;;;;;;5034971;28;20067;-76
2022/03/29 05:18:25;;;;;;;101.53;52.65;;;4.70;1.00;;;;;;5033594;28;20045;-75
2022/03/29 05:20:52;;;;;;;89.30;49.30;;;4.80;1.00;;;;;;5034289;28;20088;-74
2022/03/29 05:23:23;;;;;;;96.45;58.50;;;4.80;1.00;;;;;;5032240;28;20041;-75
2022/03/29 05:25:51;;;;;;;109.07;59.72;;;4.90;1.00;;;;;;5034754;28;20038;-75
2022/03/29 05:28:18;;;;;;;107.22;57.75;;;5.10;1.00;;;;;;5032830;28;20128;-75
2022/03/29 05:30:46;;;;;;;117.50;68.35;;;5.10;1.00;;;;;;5027177;28;20050;-75
2022/03/29 05:33:15;;;;;;;107.55;58.80;;;5.20;1.00;;;;;;5033099;28;20559;-75
2022/03/29 05:35:43;;;;;;;107.82;56.90;;;5.20;1.00;;;;;;5033472;28;20049;-74
2022/03/29 05:38:13;;;;;;;84.90;51.75;;;5.40;1.00;;;;;;5024914;28;20053;-74
2022/03/29 05:40:42;;;;;;;98.18;51.80;;;5.50;1.00;;;;;;5074376;23;20140;-76
2022/03/29 05:43:11;;;;;;;83.53;49.47;;;5.60;1.00;;;;;;5059940;28;20065;-76
2022/03/29 05:45:39;;;;;;;91.90;51.55;;;5.70;1.00;;;;;;5058517;28;20045;-76
2022/03/29 05:50:53;;;;;;;87.45;47.95;;;6.20;1.00;;;;;;5056974;28;20464;-77
2022/03/29 05:53:22;;;;;;;85.15;49.30;;;6.40;1.00;;;;;;5056558;28;20037;-77
2022/03/29 05:55:51;;;;;;;97.22;50.63;;;6.50;99.90;;;;;;5070918;28;20517;-77
2022/03/29 05:58:20;;;;;;;85.07;48.92;;;6.70;99.90;;;;;;5068221;28;20128;-76
2022/03/29 06:00:47;;;;;;;94.75;58.25;;;6.70;99.90;;;;;;5081351;28;20123;-78
2022/03/29 06:03:15;;;;;;;90.47;57.63;;;6.90;99.90;;;;;;5081310;28;20051;-78
2022/03/29 06:05:46;;;;;;;98.68;61.70;;;7.00;99.90;;;;;;5076962;28;20079;-77
2022/03/29 06:08:13;;;;;;;106.95;62.67;;;7.10;99.90;;;;;;5076725;28;20045;-78
2022/03/29 06:10:41;;;;;;;87.53;53.08;;;7.30;99.90;;;;;;5075175;28;20059;-76
2022/03/29 06:13:12;;;;;;;80.03;50.90;;;7.40;99.90;;;;;;5076064;28;20036;-76
2022/03/29 06:15:40;;;;;;;85.47;48.80;;;7.50;99.90;;;;;;5059003;28;20047;-77
2022/03/29 06:18:07;;;;;;;81.43;48.40;;;7.70;99.90;;;;;;5076762;28;20037;-79
2022/03/29 06:20:35;;;;;;;81.43;46.95;;;7.90;99.90;;;;;;5073047;28;20051;-79
2022/03/29 06:23:02;;;;;;;74.75;45.72;;;8.20;99.90;;;;;;5080120;28;20119;-80
2022/03/29 06:25:32;;;;;;;76.50;47.45;;;8.50;99.90;;;;;;5066956;28;20032;-77
2022/03/29 06:27:59;;;;;;;84.35;49.30;;;8.70;99.90;;;;;;5077254;28;20098;-77
2022/03/29 06:30:30;;;;;;;84.15;52.28;;;8.90;75.40;;;;;;5075278;28;20483;-78
2022/03/29 06:32:58;;;;;;;95.05;55.83;;;9.10;46.70;;;;;;5058997;28;20057;-77
2022/03/29 06:35:28;;;;;;;102.13;54.78;;;9.30;29.20;;;;;;5056497;28;20508;-77
2022/03/29 06:37:59;;;;;;;97.35;57.58;;;9.60;1.00;;;;;;5064950;28;20040;-78
2022/03/29 06:40:28;;;;;;;96.95;57.83;;;9.90;1.00;;;;;;5071086;28;20572;-76
2022/03/29 06:42:57;;;;;;;96.93;59.30;;;10.00;1.00;;;;;;5075179;28;20048;-77
2022/03/29 06:45:26;;;;;;;92.90;56.55;;;10.10;1.00;;;;;;5073645;28;20036;-76
2022/03/29 06:47:54;;;;;;;90.10;51.97;;;10.30;1.00;;;;;;5078695;28;20032;-78
2022/03/29 06:50:22;;;;;;;82.68;49.53;;;10.60;1.00;;;;;;5070037;28;20076;-79
2022/03/29 06:52:50;;;;;;;83.13;46.85;;;10.70;1.00;;;;;;5074704;28;20037;-79
2022/03/29 06:55:18;;;;;;;67.90;44.78;;;11.10;1.00;;;;;;5072297;28;20048;-78
2022/03/29 06:57:46;;;;;;;67.35;42.05;;;11.40;1.00;;;;;;5076456;28;20418;-77
2022/03/29 07:00:15;;;;;;;67.50;41.20;;;11.60;1.00;;;;;;5095188;28;20052;-78
2022/03/29 07:02:42;;;;;;;69.68;42.58;;;11.50;1.00;;;;;;5085121;28;20051;-77
2022/03/29 07:05:14;;;;;;;78.75;44.28;;;11.70;1.00;;;;;;5081205;28;20048;-77
2022/03/29 07:07:42;;;;;;;76.30;42.08;;;11.70;1.00;;;;;;5080548;28;20040;-77
2022/03/29 07:12:58;;;;;;;63.65;41.60;;;12.00;1.00;;;;;;5065234;28;20044;-78
2022/03/29 07:15:26;;;;;;;70.95;41.90;;;12.40;1.00;;;;;;5078726;28;20049;-77
2022/03/29 07:17:54;;;;;;;62.13;43.20;;;12.70;1.00;;;;;;5075097;28;20024;-77
2022/03/29 07:20:23;;;;;;;68.13;42.33;;;12.70;1.00;;;;;;5072825;28;20036;-79
2022/03/29 07:22:52;;;;;;;71.15;42.97;;;13.00;1.00;;;;;;5103566;28;20036;-80
2022/03/29 07:25:22;;;;;;;66.43;43.20;;;13.40;1.00;;;;;;5091586;28;20037;-79
2022/03/29 07:27:52;;;;;;;62.30;41.88;;;13.80;1.00;;;;;;5079628;28;20048;-78
2022/03/29 07:30:19;;;;;;;66.55;43.92;;;14.10;1.00;;;;;;5080458;28;20045;-78
2022/03/29 07:32:48;;;;;;;68.63;43.17;;;14.20;1.00;;;;;;5083483;28;20063;-78
2022/03/29 07:35:17;;;;;;;66.22;40.45;;;14.20;1.00;;;;;;5068375;28;20136;-78
2022/03/29 07:37:46;;;;;;;63.83;41.88;;;14.30;1.00;;;;;;5066204;28;20049;-79
2022/03/29 07:40:17;;;;;;;68.18;43.05;;;14.40;1.00;;;;;;5069347;28;20037;-76
2022/03/29 07:42:44;;;;;;;63.00;41.70;;;14.50;1.00;;;;;;5088952;28;20104;-78
2022/03/29 07:45:13;;;;;;;56.08;38.40;;;14.70;1.00;;;;;;5073839;28;20056;-77
2022/03/29 07:47:42;;;;;;;72.72;44.45;;;14.70;1.00;;;;;;5071179;28;20083;-79
2022/03/29 07:50:11;;;;;;;59.95;40.63;;;14.90;1.00;;;;;;5072817;28;20055;-78
2022/03/29 07:52:40;;;;;;;59.53;40.83;;;15.30;1.00;;;;;;5074732;28;20036;-78
2022/03/29 07:55:13;;;;;;;57.20;39.67;;;15.70;1.00;;;;;;5083571;28;20109;-78
2022/03/29 07:57:41;;;;;;;62.80;40.08;;;16.10;1.00;;;;;;5091376;28;20040;-79
2022/03/29 08:02:58;;;;;;;55.05;37.35;;;16.60;1.00;;;;;;5098326;28;20048;-79
2022/03/29 08:05:26;;;;;;;57.97;38.67;;;16.90;1.00;;;;;;5083385;28;20104;-77
2022/03/29 08:07:53;;;;;;;49.28;34.72;;;17.10;1.00;;;;;;5075080;28;20108;-79
2022/03/29 08:10:22;;;;;;;50.67;33.85;;;17.10;1.00;;;;;;5069596;28;20105;-78
2022/03/29 08:12:50;;;;;;;47.88;32.80;;;17.30;1.00;;;;;;5071429;28;20051;-76
2022/03/29 08:15:18;;;;;;;51.63;32.00;;;17.40;1.00;;;;;;5067353;28;20053;-77
2022/03/29 08:17:45;;;;;;;44.30;33.13;;;17.60;1.00;;;;;;5061273;28;20116;-79
2022/03/29 08:20:13;;;;;;;47.72;33.00;;;17.70;1.00;;;;;;5083958;28;20093;-77
2022/03/29 08:22:44;;;;;;;52.50;34.35;;;17.90;1.00;;;;;;5078667;28;20051;-79
2022/03/29 08:25:13;;;;;;;53.85;34.55;;;17.90;1.00;;;;;;5064187;28;20113;-78
2022/03/29 08:27:42;;;;;;;58.83;37.10;;;18.10;1.00;;;;;;5074556;28;20074;-80
2022/03/29 08:30:11;;;;;;;46.85;33.22;;;18.20;1.00;;;;;;5066222;28;20051;-78
2022/03/29 08:32:38;;;;;;;46.22;32.08;;;18.40;1.00;;;;;;5075116;28;20052;-77
2022/03/29 08:35:08;;;;;;;50.60;34.63;;;18.40;1.00;;;;;;5082162;28;20048;-80
2022/03/29 08:37:36;;;;;;;46.55;34.28;;;18.50;1.00;;;;;;5080152;28;20041;-78
2022/03/29 08:40:05;;;;;;;48.40;31.08;;;18.70;1.00;;;;;;5078027;28;20060;-80
2022/03/29 08:42:32;;;;;;;55.65;31.83;;;18.60;1.00;;;;;;5078891;28;20040;-79
2022/03/29 08:45:06;;;;;;;50.42;33.65;;;18.80;1.00;;;;;;5078361;28;20040;-79
2022/03/29 08:47:34;;;;;;;47.60;32.10;;;18.80;1.00;;;;;;5076248;28;20029;-79
2022/03/29 08:50:04;;;;;;;47.78;32.42;;;18.80;1.00;;;;;;5057159;28;20049;-78
2022/03/29 08:52:32;;;;;;;43.40;32.05;;;19.00;1.00;;;;;;5078526;28;20042;-79
2022/03/29 08:55:01;;;;;;;45.15;31.30;;;19.10;1.00;;;;;;5082100;28;20119;-78
2022/03/29 08:57:28;;;;;;;48.20;34.30;;;19.10;1.00;;;;;;5085071;28;20051;-78
2022/03/29 08:59:56;;;;;;;46.58;32.70;;;19.10;1.00;;;;;;5096864;28;20093;-79
2022/03/29 09:02:25;;;;;;;43.20;31.40;;;19.20;1.00;;;;;;5078069;28;20044;-79
2022/03/29 09:05:12;;;;;;;53.28;34.47;;;19.20;1.00;;;;;;5076556;28;20131;-79
2022/03/29 09:07:51;;;;;;;49.17;31.45;;;19.20;1.00;;;;;;5074983;28;20041;-78
2022/03/29 09:10:19;;;;;;;49.53;32.72;;;19.40;1.00;;;;;;5066942;28;20044;-79
2022/03/29 09:12:47;;;;;;;45.55;31.85;;;19.50;1.00;;;;;;5095874;28;20476;-79
2022/03/29 09:15:14;;;;;;;40.50;30.58;;;19.60;1.00;;;;;;5060342;28;20064;-79
2022/03/29 09:17:46;;;;;;;41.83;30.58;;;19.70;1.00;;;;;;5057816;28;20040;-78
2022/03/29 09:20:15;;;;;;;39.17;28.95;;;19.80;1.00;;;;;;5078182;28;20051;-78
2022/03/29 09:22:45;;;;;;;40.55;29.55;;;19.80;1.00;;;;;;5095993;28;20040;-79
2022/03/29 09:25:18;;;;;;;49.03;32.65;;;19.90;1.00;;;;;;5078956;28;20055;-78
2022/03/29 09:27:57;;;;;;;42.85;28.73;;;19.90;1.00;;;;;;5077649;28;20384;-80
2022/03/29 09:30:26;;;;;;;43.08;27.58;;;19.90;1.00;;;;;;5077714;28;20402;-79
2022/03/29 09:33:00;;;;;;;39.40;27.23;;;20.00;1.00;;;;;;5075876;28;20095;-79
2022/03/29 09:35:30;;;;;;;39.03;27.15;;;20.00;1.00;;;;;;5075334;28;20056;-79
2022/03/29 09:37:58;;;;;;;37.53;28.55;;;20.00;1.00;;;;;;5097248;28;20059;-79
2022/03/29 09:40:39;;;;;;;33.83;24.73;;;20.20;1.00;;;;;;5097049;28;20059;-81
2022/03/29 09:43:27;;;;;;;33.53;24.42;;;20.30;1.00;;;;;;5059094;28;20380;-78
2022/03/29 09:45:56;;;;;;;32.83;23.65;;;20.30;1.00;;;;;;5058546;28;20511;-78
2022/03/29 09:48:33;;;;;;;37.25;24.30;;;20.20;1.00;;;;;;5068188;28;20060;-80
2022/03/29 09:51:18;;;;;;;42.13;26.70;;;20.20;1.00;;;;;;5057688;28;20072;-81
2022/03/29 09:53:47;;;;;;;41.22;29.58;;;20.20;1.00;;;;;;5068142;28;20055;-81
2022/03/29 09:56:19;;;;;;;35.83;27.20;;;20.30;1.00;;;;;;5059269;28;20102;-78
2022/03/29 09:58:47;;;;;;;39.95;28.60;;;20.50;1.00;;;;;;5060339;28;20152;-79
2022/03/29 10:01:25;;;;;;;39.47;27.15;;;20.60;1.00;;;;;;5082296;28;20041;-78
2022/03/29 10:03:54;;;;;;;43.45;31.30;;;20.70;1.00;;;;;;5060076;28;20053;-80
2022/03/29 10:06:24;;;;;;;39.42;27.33;;;20.70;1.00;;;;;;5097533;28;20056;-79
2022/03/29 10:11:44;;;;;;;36.53;27.02;;;20.60;1.00;;;;;;5080900;28;20040;-78
2022/03/29 10:14:15;;;;;;;39.15;28.30;;;20.70;1.00;;;;;;5076897;28;20048;-78
2022/03/29 10:16:46;;;;;;;35.85;25.65;;;20.70;1.00;;;;;;5077607;28;20068;-78
2022/03/29 10:19:18;;;;;;;40.33;29.63;;;20.70;1.00;;;;;;5075884;28;20431;-76
2022/03/29 10:21:47;;;;;;;36.33;25.52;;;20.50;1.00;;;;;;5086376;28;20054;-77
2022/03/29 10:24:14;;;;;;;44.42;29.05;;;20.70;1.00;;;;;;5095759;28;20048;-78
2022/03/29 10:26:43;;;;;;;42.17;29.02;;;20.90;1.00;;;;;;5096463;28;20052;-78
2022/03/29 10:29:12;;;;;;;44.13;30.23;;;20.90;1.00;;;;;;5097204;28;20130;-79
2022/03/29 10:31:50;;;;;;;37.80;28.05;;;21.10;1.00;;;;;;5096778;28;20081;-78
2022/03/29 10:34:20;;;;;;;44.25;27.02;;;21.10;1.00;;;;;;5083543;28;20124;-76
2022/03/29 10:37:08;;;;;;;43.05;27.20;;;21.20;1.00;;;;;;5067124;28;20099;-78
2022/03/29 10:39:53;;;;;;;41.72;27.17;;;21.30;1.00;;;;;;5059702;28;20053;-78
2022/03/29 10:42:46;;;;;;;32.03;25.47;;;21.40;1.00;;;;;;5059162;28;20144;-77
2022/03/29 10:45:19;;;;;;;45.13;28.45;;;21.40;1.00;;;;;;5059581;28;20059;-80
2022/03/29 10:47:49;;;;;;;38.42;28.13;;;21.40;1.00;;;;;;5060117;28;20055;-78
2022/03/29 10:50:18;;;;;;;41.45;29.10;;;21.50;1.00;;;;;;5061393;28;20041;-76
2022/03/29 10:52:48;;;;;;;40.63;30.80;;;21.50;1.00;;;;;;5072264;28;20040;-77
2022/03/29 10:55:25;;;;;;;47.40;30.35;;;21.40;1.00;;;;;;5088624;28;20039;-79
2022/03/29 10:58:20;;;;;;;40.65;28.20;;;21.40;1.00;;;;;;5093875;28;20051;-79
2022/03/29 11:00:48;;;;;;;43.20;31.10;;;21.40;1.00;;;;;;5067175;28;20070;-77
2022/03/29 11:03:20;;;;;;;45.47;31.15;;;21.50;1.00;;;;;;5099344;28;20055;-79
2022/03/29 11:06:12;;;;;;;37.13;26.35;;;21.60;1.00;;;;;;5063791;28;20041;-78
2022/03/29 11:08:46;;;;;;;40.45;26.63;;;21.50;1.00;;;;;;5072089;28;20079;-77
2022/03/29 11:11:36;;;;;;;43.38;30.65;;;21.40;1.00;;;;;;5075726;28;20048;-80
2022/03/29 11:14:39;;;;;;;38.85;28.23;;;21.50;1.00;;;;;;5086473;28;20052;-79
2022/03/29 11:17:41;;;;;;;33.80;26.65;;;21.60;1.00;;;;;;5090169;28;20045;-77
2022/03/29 11:20:32;;;;;;;45.78;29.25;;;21.60;1.00;;;;;;5089124;28;20044;-79
2022/03/29 11:23:04;;;;;;;41.17;28.90;;;21.80;1.00;;;;;;5075896;28;20063;-79
2022/03/29 11:25:39;;;;;;;35.30;28.88;;;21.70;1.00;;;;;;5074791;28;20098;-80
2022/03/29 11:28:08;;;;;;;49.73;28.13;;;21.70;1.00;;;;;;5081325;28;20048;-80
2022/03/29 11:30:36;;;;;;;36.78;26.30;;;21.60;1.00;;;;;;5081626;28;20380;-76
2022/03/29 11:33:04;;;;;;;36.25;26.67;;;21.50;1.00;;;;;;5081211;28;20044;-78
2022/03/29 11:35:33;;;;;;;34.53;28.25;;;21.30;1.00;;;;;;5078970;28;20045;-80
2022/03/29 11:38:15;;;;;;;41.70;28.20;;;21.30;1.00;;;;;;5080080;28;20048;-79
2022/03/29 11:40:44;;;;;;;38.20;28.45;;;21.40;1.00;;;;;;5102027;22;20486;-76
2022/03/29 11:43:14;;;;;;;40.63;27.70;;;21.50;1.00;;;;;;5056134;28;20513;-77
2022/03/29 11:45:44;;;;;;;36.38;27.00;;;21.60;1.00;;;;;;5056622;28;20044;-76
2022/03/29 11:48:14;;;;;;;38.65;26.73;;;21.50;1.00;;;;;;5056269;28;20045;-77
2022/03/29 11:50:43;;;;;;;35.08;27.08;;;21.60;1.00;;;;;;5053137;28;20048;-75
2022/03/29 11:53:21;;;;;;;34.65;26.75;;;21.70;1.00;;;;;;5056241;28;20071;-75
2022/03/29 11:55:57;;;;;;;40.95;26.60;;;21.80;1.00;;;;;;5054128;28;20045;-76
2022/03/29 11:58:26;;;;;;;34.85;26.52;;;21.80;1.00;;;;;;5056228;28;20144;-76
2022/03/29 12:00:59;;;;;;;41.58;25.42;;;21.80;1.00;;;;;;5047158;28;20059;-76
2022/03/29 12:03:32;;;;;;;34.42;26.02;;;21.90;1.00;;;;;;5049914;28;20045;-75
2022/03/29 12:06:05;;;;;;;39.38;26.48;;;21.90;1.00;;;;;;5052207;28;20108;-75
2022/03/29 12:08:49;;;;;;;39.25;27.00;;;22.00;1.00;;;;;;5056406;28;20044;-75
2022/03/29 12:11:18;;;;;;;37.15;26.75;;;22.00;1.00;;;;;;5075102;28;20710;-77
2022/03/29 12:13:46;;;;;;;37.95;26.45;;;22.10;1.00;;;;;;5075133;28;20052;-76
2022/03/29 12:16:20;;;;;;;48.05;26.52;;;22.20;1.00;;;;;;5056023;28;20045;-77
2022/03/29 12:18:48;;;;;;;36.50;27.50;;;22.20;1.00;;;;;;5053476;28;20052;-77
2022/03/29 12:21:17;;;;;;;39.80;29.80;;;22.20;1.00;;;;;;5054243;28;20484;-75
2022/03/29 12:23:47;;;;;;;51.38;28.63;;;22.30;1.00;;;;;;5044889;28;20113;-76
2022/03/29 12:26:17;;;;;;;39.22;24.80;;;22.30;1.00;;;;;;5045444;28;20155;-79
2022/03/29 12:28:46;;;;;;;32.67;24.75;;;22.40;1.00;;;;;;5043303;28;20570;-76
2022/03/29 12:31:16;;;;;;;38.97;25.65;;;22.30;1.00;;;;;;5059766;28;20045;-76
2022/03/29 12:33:44;;;;;;;41.25;25.77;;;22.40;1.00;;;;;;5055051;28;20505;-75
2022/03/29 12:36:13;;;;;;;32.47;24.95;;;22.30;1.00;;;;;;5055069;28;20063;-76
2022/03/29 12:38:48;;;;;;;33.03;25.15;;;22.40;1.00;;;;;;5055672;28;20103;-76
2022/03/29 12:41:31;;;;;;;34.15;25.83;;;22.50;1.00;;;;;;5054196;28;20056;-75
2022/03/29 12:43:59;;;;;;;30.42;24.35;;;22.40;1.00;;;;;;5055263;28;20041;-75
2022/03/29 12:46:26;;;;;;;30.80;23.35;;;22.40;1.00;;;;;;5049090;28;20507;-75
2022/03/29 12:48:56;;;;;;;33.92;23.40;;;22.50;1.00;;;;;;5036361;28;20496;-75
2022/03/29 12:51:28;;;;;;;30.63;23.73;;;22.50;1.00;;;;;;5050934;28;20061;-75
2022/03/29 12:53:59;;;;;;;32.38;24.75;;;22.60;1.00;;;;;;5054662;28;20045;-76
2022/03/29 12:56:35;;;;;;;33.58;22.73;;;22.70;1.00;;;;;;5047923;28;20045;-76
2022/03/29 12:59:27;;;;;;;30.55;21.95;;;22.60;1.00;;;;;;5048786;28;20037;-76
2022/03/29 13:02:01;;;;;;;29.23;21.83;;;22.50;1.00;;;;;;5035365;28;20041;-77
2022/03/29 13:04:40;;;;;;;72.18;47.13;;;22.40;1.00;;;;;;5034008;28;20063;-76
2022/03/29 13:07:08;;;;;;;43.05;29.30;;;22.50;1.00;;;;;;5033951;28;20054;-77